Overview Statistics Trail Chart Weather Telemetry Raw packets
 

This is the latest recevied weather packets stored in our database for station/object HS2XQB-3. If no packets are shown the sender has not sent any weather packets the latest 10 day(s).

<< 1 2 3 4 5 6 >>
Time Temp. Humidity Pressure Rain* Wind** Luminosity Snow
1788628299 32.78° C 56% 1005 hPa - - 0 W/m² -
1788626477 33.33° C 56% 1006 hPa - - 0 W/m² -
1788624654 33.33° C 58% 1006 hPa - - 0 W/m² -
1788622832 33.89° C 59% 1006 hPa - - 0 W/m² -
1788621010 34.44° C 60% 1006 hPa - - 0 W/m² -
1788619188 34.44° C 59% 1006 hPa - - 0 W/m² -
1788617366 34.44° C 58% 1005 hPa - - 0 W/m² -
1788615544 34.44° C 57% 1005 hPa - - 0 W/m² -
1788613721 34.44° C 57% 1004 hPa - - 0 W/m² -
1788611899 35° C 54% 1004 hPa - - 0 W/m² -
1788610077 35.56° C 53% 1004 hPa - - 0 W/m² -
1788608255 36.11° C 51% 1003 hPa - - 0 W/m² -
1788606434 36.67° C 49% 1003 hPa - - 0 W/m² -
1788604611 37.22° C 47% 1003 hPa - - 0 W/m² -
1788602789 38.89° C 44% 1002 hPa - - 0 W/m² -
1788600967 39.44° C 42% 1002 hPa - - 0 W/m² -
1788599145 40.56° C 40% 1002 hPa - - 0 W/m² -
1788597323 41.11° C 40% 1002 hPa - - 0 W/m² -
1788595501 41.67° C 39% 1003 hPa - - 0 W/m² -
1788593679 41.67° C 39% 1003 hPa - - 0 W/m² -
1788591857 41.67° C 40% 1003 hPa - - 0 W/m² -
1788590035 40.56° C 41% 1004 hPa - - 0 W/m² -
1788588213 41.11° C 41% 1005 hPa - - 0 W/m² -
1788586391 41.11° C 42% 1005 hPa - - 0 W/m² -
1788584569 42.22° C 41% 1006 hPa - - 0 W/m² -

* Rain since midnight (hover to see other rain measurements)
** Current wind speed in m/s (hover to see current wind gust speed)